sensor_id;sensor_type;location;lat;lon;timestamp;P1;durP1;ratioP1;P2;durP2;ratioP2
9597;SDS011;4837;50.890;4.724;2022-12-18T00:00:44;41.23;;;21.73;;
9597;SDS011;4837;50.890;4.724;2022-12-18T00:03:12;44.53;;;24.67;;
9597;SDS011;4837;50.890;4.724;2022-12-18T00:05:45;40.33;;;24.07;;
9597;SDS011;4837;50.890;4.724;2022-12-18T00:08:11;42.30;;;23.60;;
9597;SDS011;4837;50.890;4.724;2022-12-18T00:10:37;43.07;;;24.23;;
9597;SDS011;4837;50.890;4.724;2022-12-18T00:13:03;45.77;;;24.70;;
9597;SDS011;4837;50.890;4.724;2022-12-18T00:15:29;51.00;;;27.93;;
9597;SDS011;4837;50.890;4.724;2022-12-18T00:17:56;52.23;;;28.70;;
9597;SDS011;4837;50.890;4.724;2022-12-18T00:20:22;51.20;;;26.23;;
9597;SDS011;4837;50.890;4.724;2022-12-18T00:22:51;46.50;;;25.43;;
9597;SDS011;4837;50.890;4.724;2022-12-18T00:25:17;49.80;;;27.33;;
9597;SDS011;4837;50.890;4.724;2022-12-18T00:27:43;49.77;;;27.07;;
9597;SDS011;4837;50.890;4.724;2022-12-18T00:30:09;49.57;;;26.53;;
9597;SDS011;4837;50.890;4.724;2022-12-18T00:32:36;46.80;;;24.87;;
9597;SDS011;4837;50.890;4.724;2022-12-18T00:35:02;47.27;;;25.27;;
9597;SDS011;4837;50.890;4.724;2022-12-18T00:37:28;40.20;;;21.60;;
9597;SDS011;4837;50.890;4.724;2022-12-18T00:39:54;44.17;;;22.00;;
9597;SDS011;4837;50.890;4.724;2022-12-18T00:42:20;45.07;;;23.50;;
9597;SDS011;4837;50.890;4.724;2022-12-18T00:45:05;43.33;;;22.73;;
9597;SDS011;4837;50.890;4.724;2022-12-18T00:47:32;38.53;;;21.77;;
9597;SDS011;4837;50.890;4.724;2022-12-18T00:49:58;39.37;;;21.07;;
9597;SDS011;4837;50.890;4.724;2022-12-18T00:52:24;42.10;;;23.40;;
9597;SDS011;4837;50.890;4.724;2022-12-18T00:54:50;54.70;;;30.13;;
9597;SDS011;4837;50.890;4.724;2022-12-18T00:57:16;43.80;;;23.40;;
9597;SDS011;4837;50.890;4.724;2022-12-18T00:59:42;39.67;;;22.20;;
9597;SDS011;4837;50.890;4.724;2022-12-18T01:02:08;46.83;;;23.57;;
9597;SDS011;4837;50.890;4.724;2022-12-18T01:04:34;41.77;;;23.27;;
9597;SDS011;4837;50.890;4.724;2022-12-18T01:07:00;42.93;;;22.73;;
9597;SDS011;4837;50.890;4.724;2022-12-18T01:09:26;43.63;;;23.77;;
9597;SDS011;4837;50.890;4.724;2022-12-18T01:11:52;38.60;;;21.77;;
9597;SDS011;4837;50.890;4.724;2022-12-18T01:14:18;41.47;;;22.50;;
9597;SDS011;4837;50.890;4.724;2022-12-18T01:16:45;42.00;;;22.00;;
9597;SDS011;4837;50.890;4.724;2022-12-18T01:19:11;44.83;;;23.47;;
9597;SDS011;4837;50.890;4.724;2022-12-18T01:21:37;37.67;;;21.30;;
9597;SDS011;4837;50.890;4.724;2022-12-18T01:24:03;42.33;;;22.07;;
9597;SDS011;4837;50.890;4.724;2022-12-18T01:26:30;35.67;;;20.77;;
9597;SDS011;4837;50.890;4.724;2022-12-18T01:28:56;35.80;;;19.80;;
9597;SDS011;4837;50.890;4.724;2022-12-18T01:31:26;34.67;;;19.50;;
9597;SDS011;4837;50.890;4.724;2022-12-18T01:33:53;33.10;;;18.73;;
9597;SDS011;4837;50.890;4.724;2022-12-18T01:36:24;33.53;;;19.17;;
9597;SDS011;4837;50.890;4.724;2022-12-18T01:38:50;32.97;;;19.37;;
9597;SDS011;4837;50.890;4.724;2022-12-18T01:41:19;37.37;;;20.37;;
9597;SDS011;4837;50.890;4.724;2022-12-18T01:43:52;38.20;;;20.97;;
9597;SDS011;4837;50.890;4.724;2022-12-18T01:46:20;35.33;;;20.53;;
9597;SDS011;4837;50.890;4.724;2022-12-18T01:48:47;38.43;;;20.67;;
9597;SDS011;4837;50.890;4.724;2022-12-18T01:51:13;36.10;;;21.47;;
9597;SDS011;4837;50.890;4.724;2022-12-18T01:53:40;33.40;;;19.17;;
9597;SDS011;4837;50.890;4.724;2022-12-18T01:56:07;33.43;;;19.37;;
9597;SDS011;4837;50.890;4.724;2022-12-18T02:01:12;36.03;;;18.67;;
9597;SDS011;4837;50.890;4.724;2022-12-18T02:03:41;33.93;;;17.47;;
9597;SDS011;4837;50.890;4.724;2022-12-18T02:06:10;39.33;;;20.83;;
9597;SDS011;4837;50.890;4.724;2022-12-18T02:11:39;36.23;;;19.77;;
9597;SDS011;4837;50.890;4.724;2022-12-18T02:14:16;32.80;;;19.00;;
9597;SDS011;4837;50.890;4.724;2022-12-18T02:22:04;33.63;;;18.10;;
9597;SDS011;4837;50.890;4.724;2022-12-18T02:24:42;35.30;;;19.13;;
9597;SDS011;4837;50.890;4.724;2022-12-18T02:27:12;35.43;;;20.47;;
9597;SDS011;4837;50.890;4.724;2022-12-18T02:29:40;36.40;;;19.97;;
9597;SDS011;4837;50.890;4.724;2022-12-18T02:32:12;33.90;;;18.87;;
9597;SDS011;4837;50.890;4.724;2022-12-18T02:34:40;32.13;;;18.93;;
9597;SDS011;4837;50.890;4.724;2022-12-18T02:37:07;36.87;;;20.37;;
9597;SDS011;4837;50.890;4.724;2022-12-18T02:39:35;38.23;;;19.23;;
9597;SDS011;4837;50.890;4.724;2022-12-18T02:42:02;36.27;;;20.03;;
9597;SDS011;4837;50.890;4.724;2022-12-18T02:44:33;33.27;;;19.23;;
9597;SDS011;4837;50.890;4.724;2022-12-18T02:47:00;33.77;;;18.83;;
9597;SDS011;4837;50.890;4.724;2022-12-18T02:54:36;29.43;;;18.17;;
9597;SDS011;4837;50.890;4.724;2022-12-18T02:57:08;31.83;;;18.00;;
9597;SDS011;4837;50.890;4.724;2022-12-18T02:59:40;31.23;;;17.73;;
9597;SDS011;4837;50.890;4.724;2022-12-18T03:02:21;34.13;;;17.53;;
9597;SDS011;4837;50.890;4.724;2022-12-18T03:05:00;40.17;;;24.17;;
9597;SDS011;4837;50.890;4.724;2022-12-18T03:07:33;31.07;;;18.37;;
9597;SDS011;4837;50.890;4.724;2022-12-18T03:10:01;32.60;;;16.83;;
9597;SDS011;4837;50.890;4.724;2022-12-18T03:12:32;30.60;;;16.27;;
9597;SDS011;4837;50.890;4.724;2022-12-18T03:17:30;32.93;;;18.23;;
9597;SDS011;4837;50.890;4.724;2022-12-18T03:19:57;31.30;;;17.13;;
9597;SDS011;4837;50.890;4.724;2022-12-18T03:22:24;37.27;;;19.57;;
9597;SDS011;4837;50.890;4.724;2022-12-18T03:24:53;36.73;;;19.03;;
9597;SDS011;4837;50.890;4.724;2022-12-18T03:27:19;34.53;;;19.27;;
9597;SDS011;4837;50.890;4.724;2022-12-18T03:29:52;35.13;;;19.17;;
9597;SDS011;4837;50.890;4.724;2022-12-18T03:32:26;35.33;;;19.57;;
9597;SDS011;4837;50.890;4.724;2022-12-18T03:34:55;37.30;;;19.30;;
9597;SDS011;4837;50.890;4.724;2022-12-18T03:37:23;35.10;;;19.30;;
9597;SDS011;4837;50.890;4.724;2022-12-18T03:39:50;34.37;;;18.13;;
9597;SDS011;4837;50.890;4.724;2022-12-18T03:42:49;37.43;;;19.87;;
9597;SDS011;4837;50.890;4.724;2022-12-18T03:45:25;35.20;;;19.53;;
9597;SDS011;4837;50.890;4.724;2022-12-18T03:48:01;35.70;;;20.13;;
9597;SDS011;4837;50.890;4.724;2022-12-18T03:50:35;37.07;;;19.60;;
9597;SDS011;4837;50.890;4.724;2022-12-18T03:55:28;32.23;;;17.53;;
9597;SDS011;4837;50.890;4.724;2022-12-18T03:57:56;34.70;;;17.90;;
9597;SDS011;4837;50.890;4.724;2022-12-18T04:00:23;33.03;;;18.00;;
9597;SDS011;4837;50.890;4.724;2022-12-18T04:02:53;32.47;;;17.87;;
9597;SDS011;4837;50.890;4.724;2022-12-18T04:05:20;30.50;;;17.23;;
9597;SDS011;4837;50.890;4.724;2022-12-18T04:07:47;29.20;;;17.13;;
9597;SDS011;4837;50.890;4.724;2022-12-18T04:10:13;30.43;;;17.80;;
9597;SDS011;4837;50.890;4.724;2022-12-18T04:12:40;35.17;;;18.73;;
9597;SDS011;4837;50.890;4.724;2022-12-18T04:15:07;38.67;;;18.47;;
9597;SDS011;4837;50.890;4.724;2022-12-18T04:17:33;31.40;;;17.80;;
9597;SDS011;4837;50.890;4.724;2022-12-18T04:19:59;32.90;;;17.53;;
9597;SDS011;4837;50.890;4.724;2022-12-18T04:22:26;30.73;;;17.27;;
9597;SDS011;4837;50.890;4.724;2022-12-18T04:24:52;35.87;;;17.90;;
9597;SDS011;4837;50.890;4.724;2022-12-18T04:27:18;32.50;;;17.43;;
9597;SDS011;4837;50.890;4.724;2022-12-18T04:29:44;32.13;;;17.60;;
9597;SDS011;4837;50.890;4.724;2022-12-18T04:32:10;34.53;;;17.83;;
9597;SDS011;4837;50.890;4.724;2022-12-18T04:34:37;31.07;;;17.10;;
9597;SDS011;4837;50.890;4.724;2022-12-18T04:37:03;31.33;;;17.73;;
9597;SDS011;4837;50.890;4.724;2022-12-18T04:39:29;32.17;;;17.40;;
9597;SDS011;4837;50.890;4.724;2022-12-18T04:41:55;29.97;;;16.20;;
9597;SDS011;4837;50.890;4.724;2022-12-18T04:44:21;29.17;;;16.77;;
9597;SDS011;4837;50.890;4.724;2022-12-18T04:46:47;31.93;;;16.77;;
9597;SDS011;4837;50.890;4.724;2022-12-18T04:49:13;29.70;;;16.93;;
9597;SDS011;4837;50.890;4.724;2022-12-18T04:51:39;29.47;;;16.90;;
9597;SDS011;4837;50.890;4.724;2022-12-18T04:54:05;29.90;;;17.13;;
9597;SDS011;4837;50.890;4.724;2022-12-18T04:56:31;26.80;;;15.90;;
9597;SDS011;4837;50.890;4.724;2022-12-18T04:58:58;28.97;;;16.33;;
9597;SDS011;4837;50.890;4.724;2022-12-18T05:01:24;28.80;;;15.33;;
9597;SDS011;4837;50.890;4.724;2022-12-18T05:03:51;27.40;;;15.37;;
9597;SDS011;4837;50.890;4.724;2022-12-18T05:06:17;27.47;;;15.07;;
9597;SDS011;4837;50.890;4.724;2022-12-18T05:08:43;27.80;;;14.77;;
9597;SDS011;4837;50.890;4.724;2022-12-18T05:11:10;29.57;;;16.80;;
9597;SDS011;4837;50.890;4.724;2022-12-18T05:13:37;25.43;;;15.27;;
9597;SDS011;4837;50.890;4.724;2022-12-18T05:16:04;30.60;;;17.00;;
9597;SDS011;4837;50.890;4.724;2022-12-18T05:18:30;29.60;;;18.00;;
9597;SDS011;4837;50.890;4.724;2022-12-18T05:20:57;28.27;;;16.17;;
9597;SDS011;4837;50.890;4.724;2022-12-18T05:23:23;28.80;;;15.67;;
9597;SDS011;4837;50.890;4.724;2022-12-18T05:25:57;30.57;;;16.80;;
9597;SDS011;4837;50.890;4.724;2022-12-18T05:28:24;28.67;;;16.00;;
9597;SDS011;4837;50.890;4.724;2022-12-18T05:30:51;28.47;;;16.13;;
9597;SDS011;4837;50.890;4.724;2022-12-18T05:33:18;30.67;;;17.07;;
9597;SDS011;4837;50.890;4.724;2022-12-18T05:35:44;30.43;;;16.03;;
9597;SDS011;4837;50.890;4.724;2022-12-18T05:38:15;28.93;;;16.00;;
9597;SDS011;4837;50.890;4.724;2022-12-18T05:40:42;29.33;;;15.90;;
9597;SDS011;4837;50.890;4.724;2022-12-18T05:43:08;29.67;;;16.77;;
9597;SDS011;4837;50.890;4.724;2022-12-18T05:45:38;30.83;;;17.20;;
9597;SDS011;4837;50.890;4.724;2022-12-18T05:48:05;27.13;;;15.80;;
9597;SDS011;4837;50.890;4.724;2022-12-18T05:50:41;27.37;;;15.70;;
9597;SDS011;4837;50.890;4.724;2022-12-18T05:53:07;28.03;;;16.97;;
9597;SDS011;4837;50.890;4.724;2022-12-18T05:55:34;26.43;;;15.43;;
9597;SDS011;4837;50.890;4.724;2022-12-18T05:58:01;30.43;;;17.63;;
9597;SDS011;4837;50.890;4.724;2022-12-18T06:00:27;28.00;;;16.40;;
9597;SDS011;4837;50.890;4.724;2022-12-18T06:02:53;31.83;;;16.50;;
9597;SDS011;4837;50.890;4.724;2022-12-18T06:05:19;30.30;;;16.30;;
9597;SDS011;4837;50.890;4.724;2022-12-18T06:07:45;27.03;;;16.23;;
9597;SDS011;4837;50.890;4.724;2022-12-18T06:10:11;28.60;;;16.97;;
9597;SDS011;4837;50.890;4.724;2022-12-18T06:12:38;33.93;;;17.17;;
9597;SDS011;4837;50.890;4.724;2022-12-18T06:15:04;28.43;;;16.33;;
9597;SDS011;4837;50.890;4.724;2022-12-18T06:17:30;26.87;;;15.80;;
9597;SDS011;4837;50.890;4.724;2022-12-18T06:19:56;28.73;;;17.23;;
9597;SDS011;4837;50.890;4.724;2022-12-18T06:22:22;26.20;;;15.97;;
9597;SDS011;4837;50.890;4.724;2022-12-18T06:24:49;27.50;;;15.37;;
9597;SDS011;4837;50.890;4.724;2022-12-18T06:27:15;27.97;;;15.80;;
9597;SDS011;4837;50.890;4.724;2022-12-18T06:29:41;29.60;;;16.40;;
9597;SDS011;4837;50.890;4.724;2022-12-18T06:32:07;27.83;;;16.33;;
9597;SDS011;4837;50.890;4.724;2022-12-18T06:34:33;25.07;;;15.57;;
9597;SDS011;4837;50.890;4.724;2022-12-18T06:36:59;25.30;;;14.93;;
9597;SDS011;4837;50.890;4.724;2022-12-18T06:39:28;27.57;;;16.47;;
9597;SDS011;4837;50.890;4.724;2022-12-18T06:41:55;27.90;;;15.67;;
9597;SDS011;4837;50.890;4.724;2022-12-18T06:44:21;31.23;;;17.50;;
9597;SDS011;4837;50.890;4.724;2022-12-18T06:46:47;27.07;;;15.57;;
9597;SDS011;4837;50.890;4.724;2022-12-18T06:49:13;26.80;;;16.90;;
9597;SDS011;4837;50.890;4.724;2022-12-18T06:51:40;32.73;;;17.17;;
9597;SDS011;4837;50.890;4.724;2022-12-18T06:54:07;28.03;;;16.07;;
9597;SDS011;4837;50.890;4.724;2022-12-18T06:56:33;27.70;;;17.07;;
9597;SDS011;4837;50.890;4.724;2022-12-18T06:58:59;32.90;;;18.47;;
9597;SDS011;4837;50.890;4.724;2022-12-18T07:01:25;29.00;;;17.23;;
9597;SDS011;4837;50.890;4.724;2022-12-18T07:03:54;28.50;;;17.83;;
9597;SDS011;4837;50.890;4.724;2022-12-18T07:06:22;29.33;;;17.60;;
9597;SDS011;4837;50.890;4.724;2022-12-18T07:08:48;26.83;;;17.40;;
9597;SDS011;4837;50.890;4.724;2022-12-18T07:11:15;25.90;;;16.30;;
9597;SDS011;4837;50.890;4.724;2022-12-18T07:13:41;29.47;;;16.60;;
9597;SDS011;4837;50.890;4.724;2022-12-18T07:16:08;24.67;;;14.83;;
9597;SDS011;4837;50.890;4.724;2022-12-18T07:18:34;23.33;;;14.73;;
9597;SDS011;4837;50.890;4.724;2022-12-18T07:21:05;24.73;;;14.73;;
9597;SDS011;4837;50.890;4.724;2022-12-18T07:23:31;25.37;;;13.93;;
9597;SDS011;4837;50.890;4.724;2022-12-18T07:26:05;26.00;;;14.73;;
9597;SDS011;4837;50.890;4.724;2022-12-18T07:28:32;24.37;;;14.57;;
9597;SDS011;4837;50.890;4.724;2022-12-18T07:30:58;26.83;;;14.53;;
9597;SDS011;4837;50.890;4.724;2022-12-18T07:33:24;26.73;;;14.43;;
9597;SDS011;4837;50.890;4.724;2022-12-18T07:35:51;28.30;;;14.30;;
9597;SDS011;4837;50.890;4.724;2022-12-18T07:38:17;29.00;;;14.50;;
9597;SDS011;4837;50.890;4.724;2022-12-18T07:40:43;25.40;;;14.07;;
9597;SDS011;4837;50.890;4.724;2022-12-18T07:43:09;24.97;;;14.10;;
9597;SDS011;4837;50.890;4.724;2022-12-18T07:45:35;25.40;;;14.27;;
9597;SDS011;4837;50.890;4.724;2022-12-18T07:48:01;23.63;;;13.10;;
9597;SDS011;4837;50.890;4.724;2022-12-18T07:50:27;21.53;;;13.33;;
9597;SDS011;4837;50.890;4.724;2022-12-18T07:52:53;23.40;;;13.67;;
9597;SDS011;4837;50.890;4.724;2022-12-18T07:55:19;21.00;;;12.50;;
9597;SDS011;4837;50.890;4.724;2022-12-18T07:57:45;20.87;;;13.03;;
9597;SDS011;4837;50.890;4.724;2022-12-18T08:00:12;24.50;;;13.40;;
9597;SDS011;4837;50.890;4.724;2022-12-18T08:02:38;24.43;;;13.13;;
9597;SDS011;4837;50.890;4.724;2022-12-18T08:05:04;23.17;;;13.07;;
9597;SDS011;4837;50.890;4.724;2022-12-18T08:07:31;20.77;;;12.97;;
9597;SDS011;4837;50.890;4.724;2022-12-18T08:09:57;22.30;;;13.37;;
9597;SDS011;4837;50.890;4.724;2022-12-18T08:12:23;25.37;;;13.53;;
9597;SDS011;4837;50.890;4.724;2022-12-18T08:14:49;22.60;;;13.13;;
9597;SDS011;4837;50.890;4.724;2022-12-18T08:17:15;22.90;;;13.63;;
9597;SDS011;4837;50.890;4.724;2022-12-18T08:19:41;22.73;;;12.70;;
9597;SDS011;4837;50.890;4.724;2022-12-18T08:22:07;18.83;;;12.33;;
9597;SDS011;4837;50.890;4.724;2022-12-18T08:24:33;22.37;;;13.10;;
9597;SDS011;4837;50.890;4.724;2022-12-18T08:26:59;21.73;;;12.73;;
9597;SDS011;4837;50.890;4.724;2022-12-18T08:29:25;23.80;;;13.27;;
9597;SDS011;4837;50.890;4.724;2022-12-18T08:31:51;25.13;;;13.13;;
9597;SDS011;4837;50.890;4.724;2022-12-18T08:34:17;25.60;;;13.20;;
9597;SDS011;4837;50.890;4.724;2022-12-18T08:36:43;20.20;;;12.47;;
9597;SDS011;4837;50.890;4.724;2022-12-18T08:39:09;20.97;;;12.70;;
9597;SDS011;4837;50.890;4.724;2022-12-18T08:41:36;20.00;;;12.00;;
9597;SDS011;4837;50.890;4.724;2022-12-18T08:44:02;20.77;;;11.20;;
9597;SDS011;4837;50.890;4.724;2022-12-18T08:47:06;22.23;;;12.37;;
9597;SDS011;4837;50.890;4.724;2022-12-18T08:49:33;20.30;;;10.53;;
9597;SDS011;4837;50.890;4.724;2022-12-18T08:51:59;19.63;;;11.67;;
9597;SDS011;4837;50.890;4.724;2022-12-18T08:54:25;17.83;;;11.53;;
9597;SDS011;4837;50.890;4.724;2022-12-18T08:56:52;22.00;;;10.80;;
9597;SDS011;4837;50.890;4.724;2022-12-18T08:59:18;17.93;;;10.43;;
9597;SDS011;4837;50.890;4.724;2022-12-18T09:01:45;17.27;;;10.83;;
9597;SDS011;4837;50.890;4.724;2022-12-18T09:04:11;16.87;;;10.20;;
9597;SDS011;4837;50.890;4.724;2022-12-18T09:06:39;17.90;;;10.67;;
9597;SDS011;4837;50.890;4.724;2022-12-18T09:09:05;18.33;;;9.83;;
9597;SDS011;4837;50.890;4.724;2022-12-18T09:11:31;15.57;;;10.07;;
9597;SDS011;4837;50.890;4.724;2022-12-18T09:13:58;16.80;;;9.67;;
9597;SDS011;4837;50.890;4.724;2022-12-18T09:16:25;20.10;;;11.23;;
9597;SDS011;4837;50.890;4.724;2022-12-18T09:18:53;17.17;;;10.03;;
9597;SDS011;4837;50.890;4.724;2022-12-18T09:21:24;16.07;;;9.83;;
9597;SDS011;4837;50.890;4.724;2022-12-18T09:23:51;14.50;;;9.50;;
9597;SDS011;4837;50.890;4.724;2022-12-18T09:26:18;18.83;;;11.20;;
9597;SDS011;4837;50.890;4.724;2022-12-18T09:28:44;17.17;;;10.20;;
9597;SDS011;4837;50.890;4.724;2022-12-18T09:31:11;17.23;;;9.77;;
9597;SDS011;4837;50.890;4.724;2022-12-18T09:33:37;19.70;;;10.13;;
9597;SDS011;4837;50.890;4.724;2022-12-18T09:36:04;17.00;;;10.30;;
9597;SDS011;4837;50.890;4.724;2022-12-18T09:38:31;16.70;;;10.50;;
9597;SDS011;4837;50.890;4.724;2022-12-18T09:40:59;16.13;;;9.87;;
9597;SDS011;4837;50.890;4.724;2022-12-18T09:43:33;15.87;;;10.60;;
9597;SDS011;4837;50.890;4.724;2022-12-18T09:46:01;18.37;;;10.10;;
9597;SDS011;4837;50.890;4.724;2022-12-18T09:48:33;20.57;;;11.23;;
9597;SDS011;4837;50.890;4.724;2022-12-18T09:51:02;15.70;;;10.23;;
9597;SDS011;4837;50.890;4.724;2022-12-18T09:53:31;17.20;;;10.53;;
9597;SDS011;4837;50.890;4.724;2022-12-18T09:55:58;15.97;;;10.73;;
9597;SDS011;4837;50.890;4.724;2022-12-18T09:58:42;15.70;;;9.57;;
9597;SDS011;4837;50.890;4.724;2022-12-18T10:01:20;15.40;;;9.23;;
9597;SDS011;4837;50.890;4.724;2022-12-18T10:03:47;16.20;;;10.10;;
9597;SDS011;4837;50.890;4.724;2022-12-18T10:06:35;16.00;;;9.50;;
9597;SDS011;4837;50.890;4.724;2022-12-18T10:09:02;21.23;;;10.07;;
9597;SDS011;4837;50.890;4.724;2022-12-18T10:27:28;16.67;;;9.97;;
9597;SDS011;4837;50.890;4.724;2022-12-18T10:29:53;18.47;;;11.33;;
9597;SDS011;4837;50.890;4.724;2022-12-18T10:32:27;16.40;;;10.93;;
9597;SDS011;4837;50.890;4.724;2022-12-18T10:34:54;19.37;;;13.17;;
9597;SDS011;4837;50.890;4.724;2022-12-18T10:37:21;18.57;;;12.27;;
9597;SDS011;4837;50.890;4.724;2022-12-18T10:40:04;21.50;;;15.00;;
9597;SDS011;4837;50.890;4.724;2022-12-18T10:42:32;19.50;;;12.27;;
9597;SDS011;4837;50.890;4.724;2022-12-18T10:45:03;19.13;;;11.00;;
9597;SDS011;4837;50.890;4.724;2022-12-18T10:47:31;17.17;;;11.07;;
9597;SDS011;4837;50.890;4.724;2022-12-18T10:49:59;16.73;;;11.03;;
9597;SDS011;4837;50.890;4.724;2022-12-18T10:52:25;16.87;;;11.00;;
9597;SDS011;4837;50.890;4.724;2022-12-18T10:54:53;17.13;;;10.63;;
9597;SDS011;4837;50.890;4.724;2022-12-18T10:59:57;18.40;;;11.63;;
9597;SDS011;4837;50.890;4.724;2022-12-18T11:02:34;19.63;;;11.20;;
9597;SDS011;4837;50.890;4.724;2022-12-18T11:05:01;18.30;;;10.93;;
9597;SDS011;4837;50.890;4.724;2022-12-18T11:07:46;16.60;;;11.67;;
9597;SDS011;4837;50.890;4.724;2022-12-18T11:10:15;17.23;;;11.63;;
9597;SDS011;4837;50.890;4.724;2022-12-18T11:12:42;18.23;;;11.37;;
9597;SDS011;4837;50.890;4.724;2022-12-18T11:15:26;18.93;;;11.23;;
9597;SDS011;4837;50.890;4.724;2022-12-18T11:17:54;16.27;;;11.67;;
9597;SDS011;4837;50.890;4.724;2022-12-18T11:20:22;16.47;;;10.83;;
9597;SDS011;4837;50.890;4.724;2022-12-18T11:23:23;16.80;;;11.63;;
9597;SDS011;4837;50.890;4.724;2022-12-18T11:25:42;17.30;;;11.00;;
9597;SDS011;4837;50.890;4.724;2022-12-18T11:36:33;19.57;;;12.40;;
9597;SDS011;4837;50.890;4.724;2022-12-18T11:39:01;20.57;;;12.33;;
9597;SDS011;4837;50.890;4.724;2022-12-18T11:41:33;21.10;;;12.17;;
9597;SDS011;4837;50.890;4.724;2022-12-18T11:44:27;18.17;;;11.93;;
9597;SDS011;4837;50.890;4.724;2022-12-18T11:47:37;19.63;;;13.03;;
9597;SDS011;4837;50.890;4.724;2022-12-18T11:49:43;18.17;;;11.73;;
9597;SDS011;4837;50.890;4.724;2022-12-18T11:54:39;21.43;;;12.77;;
9597;SDS011;4837;50.890;4.724;2022-12-18T11:59:53;18.97;;;12.43;;
9597;SDS011;4837;50.890;4.724;2022-12-18T12:02:26;17.53;;;12.33;;
9597;SDS011;4837;50.890;4.724;2022-12-18T12:07:42;23.07;;;14.40;;
9597;SDS011;4837;50.890;4.724;2022-12-18T12:10:25;22.23;;;14.47;;
9597;SDS011;4837;50.890;4.724;2022-12-18T12:13:06;21.37;;;13.47;;
9597;SDS011;4837;50.890;4.724;2022-12-18T12:21:06;21.17;;;14.40;;
9597;SDS011;4837;50.890;4.724;2022-12-18T12:26:09;22.30;;;13.97;;
9597;SDS011;4837;50.890;4.724;2022-12-18T12:31:31;20.70;;;13.90;;
9597;SDS011;4837;50.890;4.724;2022-12-18T12:36:35;20.33;;;14.53;;
9597;SDS011;4837;50.890;4.724;2022-12-18T12:39:09;20.20;;;13.73;;
9597;SDS011;4837;50.890;4.724;2022-12-18T12:41:36;22.10;;;14.17;;
9597;SDS011;4837;50.890;4.724;2022-12-18T12:44:35;25.63;;;15.47;;
9597;SDS011;4837;50.890;4.724;2022-12-18T12:47:11;23.37;;;15.27;;
9597;SDS011;4837;50.890;4.724;2022-12-18T12:49:39;26.30;;;17.30;;
9597;SDS011;4837;50.890;4.724;2022-12-18T12:52:12;29.60;;;18.63;;
9597;SDS011;4837;50.890;4.724;2022-12-18T12:54:39;23.23;;;15.57;;
9597;SDS011;4837;50.890;4.724;2022-12-18T12:59:41;20.87;;;14.37;;
9597;SDS011;4837;50.890;4.724;2022-12-18T13:07:14;19.33;;;13.87;;
9597;SDS011;4837;50.890;4.724;2022-12-18T13:12:26;20.43;;;14.00;;
9597;SDS011;4837;50.890;4.724;2022-12-18T13:15:21;33.33;;;20.30;;
9597;SDS011;4837;50.890;4.724;2022-12-18T13:17:48;31.53;;;19.87;;
9597;SDS011;4837;50.890;4.724;2022-12-18T13:20:14;32.03;;;20.57;;
9597;SDS011;4837;50.890;4.724;2022-12-18T13:22:44;27.63;;;18.13;;
9597;SDS011;4837;50.890;4.724;2022-12-18T13:30:53;23.17;;;14.80;;
9597;SDS011;4837;50.890;4.724;2022-12-18T13:45:43;20.00;;;13.67;;
9597;SDS011;4837;50.890;4.724;2022-12-18T13:48:20;21.07;;;13.70;;
9597;SDS011;4837;50.890;4.724;2022-12-18T13:50:57;20.83;;;14.47;;
9597;SDS011;4837;50.890;4.724;2022-12-18T13:53:29;20.57;;;13.00;;
9597;SDS011;4837;50.890;4.724;2022-12-18T13:55:55;20.53;;;14.20;;
9597;SDS011;4837;50.890;4.724;2022-12-18T13:58:21;22.50;;;14.37;;
9597;SDS011;4837;50.890;4.724;2022-12-18T14:00:47;23.70;;;15.37;;
9597;SDS011;4837;50.890;4.724;2022-12-18T14:03:24;20.80;;;13.23;;
9597;SDS011;4837;50.890;4.724;2022-12-18T14:05:54;24.33;;;15.60;;
9597;SDS011;4837;50.890;4.724;2022-12-18T14:08:21;24.47;;;16.13;;
9597;SDS011;4837;50.890;4.724;2022-12-18T14:10:47;23.70;;;14.70;;
9597;SDS011;4837;50.890;4.724;2022-12-18T14:13:34;21.67;;;14.60;;
9597;SDS011;4837;50.890;4.724;2022-12-18T14:16:03;24.40;;;16.03;;
9597;SDS011;4837;50.890;4.724;2022-12-18T14:21:02;26.57;;;14.70;;
9597;SDS011;4837;50.890;4.724;2022-12-18T14:25:56;24.33;;;14.10;;
9597;SDS011;4837;50.890;4.724;2022-12-18T14:28:22;21.97;;;14.10;;
9597;SDS011;4837;50.890;4.724;2022-12-18T14:30:49;22.33;;;14.50;;
9597;SDS011;4837;50.890;4.724;2022-12-18T14:33:19;25.63;;;15.37;;
9597;SDS011;4837;50.890;4.724;2022-12-18T14:35:59;28.80;;;17.10;;
9597;SDS011;4837;50.890;4.724;2022-12-18T14:43:24;22.77;;;15.00;;
9597;SDS011;4837;50.890;4.724;2022-12-18T14:45:50;22.07;;;15.40;;
9597;SDS011;4837;50.890;4.724;2022-12-18T14:48:21;26.40;;;16.63;;
9597;SDS011;4837;50.890;4.724;2022-12-18T14:50:55;23.50;;;15.60;;
9597;SDS011;4837;50.890;4.724;2022-12-18T14:53:23;25.00;;;16.10;;
9597;SDS011;4837;50.890;4.724;2022-12-18T14:55:52;23.53;;;16.47;;
9597;SDS011;4837;50.890;4.724;2022-12-18T14:58:18;24.13;;;15.53;;
9597;SDS011;4837;50.890;4.724;2022-12-18T15:00:44;27.27;;;16.57;;
9597;SDS011;4837;50.890;4.724;2022-12-18T15:03:12;27.87;;;16.93;;
9597;SDS011;4837;50.890;4.724;2022-12-18T15:05:40;24.37;;;15.67;;
9597;SDS011;4837;50.890;4.724;2022-12-18T15:08:24;26.67;;;15.70;;
9597;SDS011;4837;50.890;4.724;2022-12-18T15:10:52;27.20;;;17.07;;
9597;SDS011;4837;50.890;4.724;2022-12-18T15:13:22;24.60;;;15.67;;
9597;SDS011;4837;50.890;4.724;2022-12-18T15:15:48;28.23;;;17.00;;
9597;SDS011;4837;50.890;4.724;2022-12-18T15:18:15;27.33;;;16.40;;
9597;SDS011;4837;50.890;4.724;2022-12-18T15:20:46;27.00;;;16.50;;
9597;SDS011;4837;50.890;4.724;2022-12-18T15:25:58;25.80;;;16.50;;
9597;SDS011;4837;50.890;4.724;2022-12-18T15:28:25;25.73;;;16.40;;
9597;SDS011;4837;50.890;4.724;2022-12-18T15:31:03;27.73;;;17.47;;
9597;SDS011;4837;50.890;4.724;2022-12-18T15:33:30;25.97;;;15.93;;
9597;SDS011;4837;50.890;4.724;2022-12-18T15:35:58;24.17;;;16.03;;
9597;SDS011;4837;50.890;4.724;2022-12-18T15:38:25;24.77;;;16.07;;
9597;SDS011;4837;50.890;4.724;2022-12-18T15:40:51;27.70;;;16.17;;
9597;SDS011;4837;50.890;4.724;2022-12-18T15:43:18;25.47;;;15.63;;
9597;SDS011;4837;50.890;4.724;2022-12-18T15:46:04;28.03;;;16.97;;
9597;SDS011;4837;50.890;4.724;2022-12-18T15:48:32;26.77;;;17.00;;
9597;SDS011;4837;50.890;4.724;2022-12-18T15:50:59;29.73;;;18.20;;
9597;SDS011;4837;50.890;4.724;2022-12-18T15:53:27;28.53;;;16.60;;
9597;SDS011;4837;50.890;4.724;2022-12-18T15:55:53;31.53;;;17.40;;
9597;SDS011;4837;50.890;4.724;2022-12-18T15:58:38;31.77;;;18.90;;
9597;SDS011;4837;50.890;4.724;2022-12-18T16:01:04;30.57;;;18.03;;
9597;SDS011;4837;50.890;4.724;2022-12-18T16:03:30;33.37;;;18.67;;
9597;SDS011;4837;50.890;4.724;2022-12-18T16:05:56;28.40;;;17.23;;
9597;SDS011;4837;50.890;4.724;2022-12-18T16:08:25;27.00;;;17.03;;
9597;SDS011;4837;50.890;4.724;2022-12-18T16:10:51;30.93;;;17.73;;
9597;SDS011;4837;50.890;4.724;2022-12-18T16:13:17;28.67;;;18.40;;
9597;SDS011;4837;50.890;4.724;2022-12-18T16:15:44;29.03;;;17.17;;
9597;SDS011;4837;50.890;4.724;2022-12-18T16:18:10;29.87;;;18.50;;
9597;SDS011;4837;50.890;4.724;2022-12-18T16:20:36;33.07;;;18.27;;
9597;SDS011;4837;50.890;4.724;2022-12-18T16:23:03;29.27;;;18.07;;
9597;SDS011;4837;50.890;4.724;2022-12-18T16:25:30;29.37;;;17.27;;
9597;SDS011;4837;50.890;4.724;2022-12-18T16:27:56;29.57;;;17.90;;
9597;SDS011;4837;50.890;4.724;2022-12-18T16:30:23;27.80;;;17.67;;
9597;SDS011;4837;50.890;4.724;2022-12-18T16:32:52;30.23;;;18.57;;
9597;SDS011;4837;50.890;4.724;2022-12-18T16:35:18;30.70;;;18.10;;
9597;SDS011;4837;50.890;4.724;2022-12-18T16:37:44;28.20;;;17.07;;
9597;SDS011;4837;50.890;4.724;2022-12-18T16:40:12;28.70;;;17.20;;
9597;SDS011;4837;50.890;4.724;2022-12-18T16:42:39;28.53;;;17.10;;
9597;SDS011;4837;50.890;4.724;2022-12-18T16:45:06;27.93;;;17.77;;
9597;SDS011;4837;50.890;4.724;2022-12-18T16:47:33;30.53;;;17.53;;